Airfield :
LOGIN :

Register | Disclaimer

   EN    FR    IT 

 










Legend :    VFR   Marginal VFR   IFR   Intensive IFR   Very Intensive IFR
Visi :
Ceiling :
>= 8 km
>= 3000ft
5 to 8 km
1000 to 3000 ft
1500m to 5 km
500 to 1000 ft
800 to 1500m
200 to 500 ft
< 800m
< 200 ft
Symbols :   Thunderstorms  Fog  Heavy snow  Heavy precipitations  Wind > 20 kt
SIGMETs :     Misc.  Thunderstorms  Icing  Turbulence  Mountain Waves  Volcanic Ashes






- Airport Elevation : 876 ft
- IATA code : MBX


LJMB - Maribor

CURRENT METAR :
  • 231500Z 24008KT 9999 TS VCSH SCT038 FEW060CB BKN090 20/14 Q1015

EXPIRED METARs :
  • 231430Z 22004KT 170V280 9999 FEW036 SCT044 FEW070CB BKN100 21/13 Q1015
  • 231400Z 24005KT 9999 SCT037 BKN110 21/13 Q1015
  • 231330Z 23005KT 190V260 9999 SCT041 BKN091 20/14 Q1015
  • 231300Z 20004KT 150V260 9999 SCT041 BKN091 21/12 Q1015
  • 231230Z 21003KT 170V310 9999 SCT044 BKN093 21/11 Q1016
  • 231200Z 14004KT 090V200 9999 SCT039 BKN068 21/11 Q1016
  • 231130Z 14005KT 040V150 9999 SCT037TCU BKN068 20/12 Q1016
  • 231100Z VRB02KT 9999 SCT034TCU BKN070 20/12 Q1016
  • 231030Z 11003KT 060V150 9999 SCT034TCU BKN090 20/12 Q1016
  • 231000Z 12005KT 070V150 9999 SCT034 FEW070CB BKN090 21/11 Q1016

TAF TAF LJMB
Valid from the 23 at 12:00 until the 24 at 12:00 UTC


231100Z 2312/2412 17004KT 9999 SCT040
TEMPO 2312/2317 SHRA SCT040TCU BKN050
PROB30
TEMPO 2312/2316 5000 TSRA SCT040CB BKN050



MET'MAP, your aeronautical weather chart ! - Copyright ORBIFLY December 2007 - Disclaimer

ORBIFLY MET'MAP TEAM :

Programming & Development : Alexandra Zaïnal
Original concept : Baudouin d'Aumeries
Technical & hardware support : Manuel Goepfert
Assistance : Marc-Olivier Méhu




SOURCES & CREDITS :

   NOAA